Hauptseite
METAR-TAF:

METAR-TAF

Flughäfen :

Flughafen Funafuti

Funafuti, Tuvalu

Breite: 08-31S, Länge: 179-13E, Höhe: 1 m

Beobachtung

Neuester Wetterbericht von vor 1 Stunde und 6 Minuten, um 00:00 UTC
Wind 7 kt aus Ost/Südost
Temperatur 31°C
Luftfeuchtigkeit 71%
Luftdruck 1009 hPa
Sichtweite 10 km oder mehr
Leicht bewölkt in der Höhe von 2000 ft
Durchbrochene Bewölkung in der Höhe von 31000 ft

METAR: NGFU 190000Z 12007KT 9999 FEW020 BKN310 31/25 Q1009

Zeit: 13:06 (01:06 UTC)

Prognose

Neuester Wetterbericht von vor 1 Stunde und 54 Minuten, um 23:12 UTC
Gültige Prognose vom 19 um 00 UTC bis 19 um 24 UTC
Wind 9 kt aus Ost/Südost
Sichtweite 10 km oder mehr
Aufgelockert bewölkt in der Höhe von 1700 ft
Durchbrochene Bewölkung in der Höhe von 10000 ft

TAF: NGFU 182312Z 1900/1924 11009KT 9999 SCT017 BKN100

Wetterbeobachtungen und Prognosen von mehr als 4000 Flughäfen (METAR und TAF Bericht).

Die verfügbaren Stationen werden durch gelbe und rote Markierungen auf der Karte dargestellt.

Führen Sie die Maus auf sie, um den Namen der Station zu sehen.

Darauf klicken, um die Beobachtung von Wetterbeobachtungen und Prognosen zu sehen.

Um die Karte zu ändern : klicken Sie auf den grünen Tasten mit einem schwarzen Kreuz Zum Vergrößern, auf den grünen Button mit einem Gedankenstrich zu verkleinern, oder auf die grünen Pfeile für benachbarte Karten.


METAR-TAF: